Time;durP1;ratioP1;P1;durP2;ratioP2;P2;SDS_P1;SDS_P2;PMS_P1;PMS_P2;Temp;Humidity;BMP_temperature;BMP_pressure;BME280_temperature;BME280_humidity;BME280_pressure;Samples;Min_cycle;Max_cycle;Signal;HPM_P1;HPM_P2
2023/03/19 00:00:20;;;;;;;0.30;0.30;;;;;;;18.89;44.63;100804.38;5116629;28;20277;-39
2023/03/19 00:02:50;;;;;;;0.30;0.30;;;;;;;18.91;44.72;100804.06;5117292;28;20047;-39
2023/03/19 00:05:16;;;;;;;0.30;0.30;;;;;;;18.90;44.84;100796.91;5117602;28;20043;-39
2023/03/19 00:07:42;;;;;;;0.30;0.30;;;;;;;18.90;44.53;100794.97;5117626;28;20051;-39
2023/03/19 00:10:08;;;;;;;0.30;0.30;;;;;;;18.91;44.83;100793.03;5116542;27;20396;-39
2023/03/19 00:12:34;;;;;;;0.20;0.20;;;;;;;18.89;44.62;100785.06;5117060;28;20039;-40
2023/03/19 00:15:00;;;;;;;0.30;0.30;;;;;;;18.90;44.50;100783.13;5117556;28;20460;-39
2023/03/19 00:17:25;;;;;;;0.30;0.30;;;;;;;18.89;44.70;100785.06;5102417;28;20129;-40
2023/03/19 00:19:51;;;;;;;0.30;0.30;;;;;;;18.89;44.79;100782.28;5098818;28;20059;-39
2023/03/19 00:22:17;;;;;;;0.30;0.30;;;;;;;18.90;44.77;100785.88;5117243;28;20053;-39
2023/03/19 00:24:43;;;;;;;0.20;0.20;;;;;;;18.89;44.62;100784.22;5115831;28;20185;-39
2023/03/19 00:27:09;;;;;;;0.30;0.30;;;;;;;18.89;44.77;100790.56;5099313;28;20040;-39
2023/03/19 00:29:35;;;;;;;0.30;0.30;;;;;;;18.90;44.81;100785.88;5117283;28;20066;-39
2023/03/19 00:32:01;;;;;;;0.30;0.30;;;;;;;18.89;44.46;100787.81;5117036;27;20105;-39
2023/03/19 00:34:27;;;;;;;0.30;0.30;;;;;;;18.90;44.67;100783.94;5082497;28;20043;-39
2023/03/19 00:36:52;;;;;;;0.30;0.30;;;;;;;18.90;44.46;100788.63;5096473;28;20128;-40
2023/03/19 00:39:18;;;;;;;0.20;0.20;;;;;;;18.89;44.85;100776.78;5101504;28;20525;-40
2023/03/19 00:41:49;;;;;;;0.30;0.30;;;;;;;18.89;44.75;100782.28;5096370;28;20051;-40
2023/03/19 00:44:17;;;;;;;0.28;0.28;;;;;;;18.90;44.58;100786.69;5096432;28;20044;-39
2023/03/19 00:46:43;;;;;;;;;;;;;;;18.89;44.77;100787.81;5097061;28;20044;-39
2023/03/19 00:49:08;;;;;;;0.30;0.30;;;;;;;18.89;44.50;100790.56;5099230;28;20358;-39
2023/03/19 00:51:34;;;;;;;0.20;0.20;;;;;;;18.90;44.63;100786.69;5095385;28;20052;-39
2023/03/19 00:54:00;;;;;;;0.22;0.22;;;;;;;18.90;44.82;100785.88;5115904;28;20482;-39
2023/03/19 00:56:26;;;;;;;0.30;0.30;;;;;;;18.89;44.62;100776.78;5115965;27;20040;-39
2023/03/19 00:58:51;;;;;;;0.30;0.30;;;;;;;18.90;44.60;100778.41;5103092;28;20047;-39
2023/03/19 01:01:17;;;;;;;0.30;0.30;;;;;;;18.89;44.62;100774.03;5116020;28;20362;-40
2023/03/19 01:03:44;;;;;;;0.30;0.30;;;;;;;18.90;44.78;100785.88;5116626;28;20236;-39
2023/03/19 01:06:11;;;;;;;0.20;0.20;;;;;;;18.89;44.60;100784.22;5097851;28;20051;-39
2023/03/19 01:08:36;;;;;;;0.20;0.20;;;;;;;18.90;44.64;100791.41;5098358;28;20104;-40
2023/03/19 01:11:05;;;;;;;0.30;0.30;;;;;;;18.90;44.47;100785.88;5116326;28;20051;-39
2023/03/19 01:13:31;;;;;;;0.30;0.30;;;;;;;18.89;44.82;100785.06;5116097;28;20476;-39
2023/03/19 01:15:56;;;;;;;0.20;0.20;;;;;;;18.90;44.75;100780.34;5116374;28;20556;-39
2023/03/19 01:18:22;;;;;;;0.30;0.30;;;;;;;18.89;44.53;100774.03;5105901;28;20052;-39
2023/03/19 01:20:48;;;;;;;0.30;0.30;;;;;;;18.89;44.80;100760.22;5113181;28;20049;-39
2023/03/19 01:23:13;;;;;;;0.30;0.30;;;;;;;18.90;44.37;100764.63;5114587;27;20065;-39
2023/03/19 01:25:39;;;;;;;0.30;0.30;;;;;;;18.90;44.54;100774.84;5116013;28;20039;-39
2023/03/19 01:28:06;;;;;;;0.30;0.30;;;;;;;18.89;44.68;100775.97;5115301;28;20146;-39
2023/03/19 01:30:32;;;;;;;0.30;0.30;;;;;;;18.89;44.69;100767.69;5116750;28;20062;-39
2023/03/19 01:32:58;;;;;;;0.20;0.20;;;;;;;18.89;44.44;100762.97;5116149;27;20043;-39
2023/03/19 01:35:23;;;;;;;0.20;0.20;;;;;;;18.90;44.43;100770.16;5106279;28;20046;-39
2023/03/19 01:37:49;;;;;;;0.20;0.20;;;;;;;18.90;44.44;100772.06;5100976;28;20051;-39
2023/03/19 01:40:15;;;;;;;0.30;0.30;;;;;;;18.90;44.79;100767.38;5110899;28;20490;-39
2023/03/19 01:43:21;;;;;;;0.30;0.30;;;;;;;18.89;44.67;100762.97;5095950;28;20044;-39
2023/03/19 01:45:49;;;;;;;0.20;0.20;;;;;;;18.89;44.69;100762.97;5068899;28;20850;-39
2023/03/19 01:51:00;;;;;;;0.30;0.30;;;;;;;18.90;44.50;100761.03;5155796;27;20144;-37
2023/03/19 01:53:28;;;;;;;0.30;0.30;;;;;;;18.89;44.72;100764.91;5174789;27;20038;-37
2023/03/19 01:55:58;;;;;;;0.30;0.30;;;;;;;18.89;44.61;100770.44;5135475;27;20039;-37
2023/03/19 01:58:25;;;;;;;0.30;0.30;;;;;;;18.90;44.47;100767.38;5114266;27;20046;-37
2023/03/19 02:00:51;;;;;;;0.30;0.30;;;;;;;18.88;44.38;100768.78;5131654;27;20051;-36
2023/03/19 02:03:17;;;;;;;0.30;0.30;;;;;;;18.89;44.50;100765.75;5132713;27;20054;-37
2023/03/19 02:05:44;;;;;;;0.20;0.20;;;;;;;18.89;44.59;100767.69;5132526;27;20043;-37
2023/03/19 02:08:11;;;;;;;0.30;0.30;;;;;;;18.89;44.44;100773.19;5132136;27;20439;-37
2023/03/19 02:10:38;;;;;;;0.30;0.30;;;;;;;18.89;44.73;100771.25;5097144;27;20494;-37
2023/03/19 02:13:04;;;;;;;0.30;0.30;;;;;;;18.90;44.51;100774.84;5113702;27;20051;-37
2023/03/19 02:15:29;;;;;;;0.30;0.30;;;;;;;18.90;44.56;100772.06;5132118;27;20076;-37
2023/03/19 02:17:55;;;;;;;0.30;0.30;;;;;;;18.90;44.63;100763.81;5131988;27;20069;-37
2023/03/19 02:20:26;;;;;;;0.30;0.30;;;;;;;18.89;44.36;100762.16;5143054;27;20517;-37
2023/03/19 02:23:32;;;;;;;0.30;0.30;;;;;;;18.90;44.68;100761.88;5153102;27;20263;-37
2023/03/19 02:26:18;;;;;;;0.30;0.30;;;;;;;18.89;44.67;100753.88;5139251;27;20411;-37
2023/03/19 02:28:46;;;;;;;0.30;0.30;;;;;;;18.89;44.71;100757.47;5130514;27;20047;-37
2023/03/19 02:31:13;;;;;;;0.20;0.20;;;;;;;18.88;44.50;100753.06;5108578;27;20082;-37
2023/03/19 02:33:39;;;;;;;0.20;0.20;;;;;;;18.89;44.69;100751.13;5111546;28;20044;-37
2023/03/19 02:36:08;;;;;;;0.30;0.30;;;;;;;18.89;44.62;100751.94;5110446;28;20062;-36
2023/03/19 02:38:35;;;;;;;0.30;0.30;;;;;;;18.89;44.24;100753.88;5129354;27;20046;-37
2023/03/19 02:41:03;;;;;;;0.30;0.30;;;;;;;18.90;44.41;100750.00;5131731;27;20486;-37
2023/03/19 02:43:30;;;;;;;0.20;0.20;;;;;;;18.90;44.73;100750.00;5131006;27;20652;-37
2023/03/19 02:45:56;;;;;;;0.30;0.30;;;;;;;18.90;44.62;100750.81;5129908;27;20494;-37
2023/03/19 02:48:23;;;;;;;0.25;0.25;;;;;;;18.89;44.72;100751.13;5116826;27;20239;-37
2023/03/19 02:50:48;;;;;;;0.30;0.30;;;;;;;18.90;44.54;100755.53;5147703;27;20082;-37
2023/03/19 02:53:14;;;;;;;0.20;0.20;;;;;;;18.90;44.64;100755.53;5152424;27;20046;-38
2023/03/19 02:55:41;;;;;;;0.30;0.30;;;;;;;18.89;44.54;100760.22;5152403;27;20406;-37
2023/03/19 02:58:06;;;;;;;0.30;0.30;;;;;;;18.89;44.72;100756.63;5136338;27;20071;-37
2023/03/19 03:00:32;;;;;;;0.30;0.30;;;;;;;18.90;44.61;100752.75;5107152;27;20416;-37
2023/03/19 03:02:58;;;;;;;0.30;0.30;;;;;;;18.90;44.63;100747.25;5079106;28;20047;-37
2023/03/19 03:05:24;;;;;;;0.30;0.30;;;;;;;18.90;44.57;100753.59;5078831;28;20097;-37
2023/03/19 03:07:50;;;;;;;0.30;0.30;;;;;;;18.90;44.56;100763.81;5096046;28;20273;-37
2023/03/19 03:10:16;;;;;;;0.30;0.30;;;;;;;18.88;44.46;100761.34;5096837;28;20052;-37
2023/03/19 03:12:42;;;;;;;0.30;0.30;;;;;;;18.89;44.70;100760.22;5078650;28;20070;-37
2023/03/19 03:15:08;;;;;;;0.30;0.30;;;;;;;18.89;44.70;100759.41;5079426;28;20040;-37
2023/03/19 03:17:38;;;;;;;0.30;0.30;;;;;;;18.89;44.41;100765.75;5097428;28;20057;-37
2023/03/19 03:20:05;;;;;;;0.20;0.20;;;;;;;18.90;44.54;100763.81;5079086;28;20309;-37
2023/03/19 03:22:31;;;;;;;0.30;0.30;;;;;;;18.90;44.61;100767.38;5093628;28;20240;-37
2023/03/19 03:24:57;;;;;;;0.30;0.30;;;;;;;18.89;44.81;100765.75;5117247;28;20092;-37
2023/03/19 03:27:23;;;;;;;0.30;0.30;;;;;;;18.90;44.71;100772.06;5098590;28;20054;-37
2023/03/19 03:29:49;;;;;;;0.30;0.30;;;;;;;18.89;44.35;100767.69;5098479;28;20138;-37
2023/03/19 03:32:15;;;;;;;0.30;0.30;;;;;;;18.90;44.51;100777.59;5117920;28;20051;-45
2023/03/19 03:34:41;;;;;;;0.30;0.30;;;;;;;18.90;44.41;100774.84;5117994;28;20070;-41
2023/03/19 03:37:06;;;;;;;0.30;0.30;;;;;;;18.90;44.70;100777.59;5117251;27;20113;-37
2023/03/19 03:39:32;;;;;;;0.28;0.28;;;;;;;18.90;44.73;100778.41;5116115;28;20043;-37
2023/03/19 03:41:58;;;;;;;0.30;0.30;;;;;;;18.89;44.43;100776.78;5117269;28;20043;-37
2023/03/19 03:44:23;;;;;;;0.30;0.30;;;;;;;18.90;44.60;100777.59;5117106;28;20526;-36
2023/03/19 03:46:49;;;;;;;0.20;0.20;;;;;;;18.89;44.39;100782.28;5117246;28;20051;-37
2023/03/19 03:49:15;;;;;;;0.30;0.30;;;;;;;18.90;44.60;100788.63;5115611;27;20070;-37
2023/03/19 03:51:41;;;;;;;0.30;0.30;;;;;;;18.90;44.45;100783.13;5114355;28;20040;-36
2023/03/19 03:54:06;;;;;;;0.30;0.30;;;;;;;18.90;44.68;100792.22;5096937;28;20048;-37
2023/03/19 03:56:32;;;;;;;0.20;0.20;;;;;;;18.89;44.72;100787.81;5097364;28;20424;-37
2023/03/19 03:58:58;;;;;;;0.30;0.30;;;;;;;18.89;44.19;100790.56;5111732;28;20470;-37
2023/03/19 04:01:24;;;;;;;0.30;0.30;;;;;;;18.90;44.34;100794.97;5116796;28;20509;-37
2023/03/19 04:03:50;;;;;;;0.30;0.30;;;;;;;18.90;44.44;100799.69;5116561;28;20047;-37
2023/03/19 04:06:17;;;;;;;0.20;0.20;;;;;;;18.89;44.57;100792.50;5117013;28;20047;-37
2023/03/19 04:08:43;;;;;;;0.20;0.20;;;;;;;18.89;44.72;100796.09;5098226;28;20074;-37
2023/03/19 04:11:09;;;;;;;0.30;0.30;;;;;;;18.90;44.61;100806.00;5116436;28;20043;-37
2023/03/19 04:13:35;;;;;;;0.30;0.30;;;;;;;18.90;44.71;100794.16;5114480;27;20058;-37
2023/03/19 04:16:03;;;;;;;0.30;0.30;;;;;;;18.89;44.62;100798.84;5098624;28;20043;-37
2023/03/19 04:18:29;;;;;;;0.30;0.30;;;;;;;18.89;44.47;100800.78;5117143;28;20066;-37
2023/03/19 04:20:56;;;;;;;0.30;0.30;;;;;;;18.90;44.55;100799.69;5116812;27;20099;-37
2023/03/19 04:23:21;;;;;;;0.30;0.30;;;;;;;18.90;44.62;100802.44;5115593;28;20349;-37
2023/03/19 04:25:47;;;;;;;0.30;0.30;;;;;;;18.89;44.53;100804.38;5116344;28;20715;-37
2023/03/19 04:28:13;;;;;;;0.30;0.30;;;;;;;18.90;44.64;100800.50;5107774;28;20048;-37
2023/03/19 04:30:38;;;;;;;0.30;0.30;;;;;;;18.89;44.49;100807.13;5095577;28;20061;-37
2023/03/19 04:33:05;;;;;;;0.20;0.20;;;;;;;18.89;44.39;100807.13;5095900;28;20047;-37
2023/03/19 04:35:31;;;;;;;0.30;0.30;;;;;;;18.89;44.71;100811.81;5095162;28;20295;-37
2023/03/19 04:37:57;;;;;;;0.30;0.30;;;;;;;18.90;44.70;100810.72;5077813;28;20052;-37
2023/03/19 04:40:23;;;;;;;0.20;0.20;;;;;;;18.89;44.63;100809.06;5101255;28;20226;-36
2023/03/19 04:42:48;;;;;;;0.30;0.30;;;;;;;18.90;44.36;100817.06;5115292;28;20427;-37
2023/03/19 04:45:14;;;;;;;0.30;0.30;;;;;;;18.88;44.60;100816.53;5115128;28;20058;-37
2023/03/19 04:47:41;;;;;;;0.30;0.30;;;;;;;18.90;44.63;100827.25;5113992;27;20058;-37
2023/03/19 04:50:08;;;;;;;0.30;0.30;;;;;;;18.90;44.50;100819.00;5114485;27;20082;-37
2023/03/19 04:52:36;;;;;;;0.25;0.25;;;;;;;18.89;44.63;100823.69;5077260;28;20577;-37
2023/03/19 04:55:03;;;;;;;0.30;0.30;;;;;;;18.90;44.70;100827.25;5077418;28;20051;-37
2023/03/19 04:57:29;;;;;;;0.20;0.20;;;;;;;18.90;44.25;100819.00;5095534;28;20074;-37
2023/03/19 04:59:55;;;;;;;0.30;0.30;;;;;;;18.90;44.46;100825.34;5095488;28;20047;-37
2023/03/19 05:02:20;;;;;;;0.20;0.20;;;;;;;18.88;44.73;100822.03;5095641;28;20358;-36
2023/03/19 05:04:46;;;;;;;0.30;0.30;;;;;;;18.91;44.66;100828.91;5094935;28;20048;-37
2023/03/19 05:07:12;;;;;;;0.30;0.30;;;;;;;18.89;44.44;100825.63;5095076;28;20142;-37
2023/03/19 05:09:38;;;;;;;0.30;0.30;;;;;;;18.89;44.46;100823.69;5076784;28;20047;-37
2023/03/19 05:12:03;;;;;;;0.20;0.20;;;;;;;18.90;44.49;100836.38;5094735;28;20093;-37
2023/03/19 05:14:29;;;;;;;0.20;0.20;;;;;;;18.90;44.71;100839.13;5094833;28;20142;-37
2023/03/19 05:16:55;;;;;;;0.20;0.20;;;;;;;18.90;44.53;100843.81;5095145;28;20120;-37
2023/03/19 05:19:21;;;;;;;0.30;0.30;;;;;;;18.91;44.66;100845.47;5095717;28;20495;-37
2023/03/19 05:21:47;;;;;;;0.30;0.30;;;;;;;18.89;44.77;100843.00;5095678;28;20059;-37
2023/03/19 05:24:12;;;;;;;0.20;0.20;;;;;;;18.90;44.70;100852.09;5094102;28;20051;-37
2023/03/19 05:26:38;;;;;;;0.30;0.30;;;;;;;18.90;44.61;100844.66;5113459;28;20042;-37
2023/03/19 05:29:04;;;;;;;0.30;0.30;;;;;;;18.91;44.44;100840.81;5099345;28;20461;-37
2023/03/19 05:31:29;;;;;;;0.20;0.20;;;;;;;18.91;44.59;100842.72;5094986;28;20048;-37
2023/03/19 05:33:55;;;;;;;0.20;0.20;;;;;;;18.89;44.55;100848.53;5115389;28;20108;-37
2023/03/19 05:36:22;;;;;;;0.20;0.20;;;;;;;18.89;44.42;100840.25;5114983;28;20392;-37
2023/03/19 05:38:48;;;;;;;0.20;0.20;;;;;;;18.89;44.71;100831.97;5097006;28;20043;-37
2023/03/19 05:41:14;;;;;;;0.20;0.20;;;;;;;18.90;44.61;100839.13;5115742;28;20050;-36
2023/03/19 05:43:40;;;;;;;0.20;0.20;;;;;;;18.89;44.77;100840.25;5114645;28;20039;-37
2023/03/19 05:46:06;;;;;;;0.20;0.20;;;;;;;18.89;44.82;100842.19;5109778;28;20074;-37
2023/03/19 05:48:32;;;;;;;0.80;0.30;;;;;;;18.90;44.65;100849.34;5118069;27;20047;-37
2023/03/19 05:50:58;;;;;;;0.20;0.20;;;;;;;18.90;44.69;100857.63;5080831;28;20051;-37
2023/03/19 05:53:23;;;;;;;0.20;0.20;;;;;;;18.89;44.72;100862.31;5094906;28;20040;-37
2023/03/19 05:55:49;;;;;;;0.30;0.30;;;;;;;18.89;44.57;100858.75;5094428;28;20048;-37
2023/03/19 05:58:15;;;;;;;0.30;0.30;;;;;;;18.89;44.74;100861.50;5076219;28;20044;-37
2023/03/19 06:00:41;;;;;;;0.30;0.30;;;;;;;18.91;44.61;100867.53;5094080;28;20047;-37
2023/03/19 06:03:07;;;;;;;0.30;0.30;;;;;;;18.90;44.87;100866.72;5076215;28;20054;-37
2023/03/19 06:05:33;;;;;;;0.30;0.30;;;;;;;18.90;44.45;100857.63;5093731;28;20278;-37
2023/03/19 06:07:58;;;;;;;0.30;0.30;;;;;;;18.90;44.52;100857.63;5093872;28;20078;-37
2023/03/19 06:10:24;;;;;;;0.30;0.30;;;;;;;18.90;44.44;100865.91;5093936;28;20059;-37
2023/03/19 06:12:50;;;;;;;0.30;0.30;;;;;;;18.91;44.53;100867.53;5093654;28;20082;-37
2023/03/19 06:15:16;;;;;;;0.20;0.20;;;;;;;18.90;44.66;100875.00;5094299;28;20117;-37
2023/03/19 06:17:43;;;;;;;0.30;0.30;;;;;;;18.90;44.75;100876.94;5094481;28;20047;-37
2023/03/19 06:20:10;;;;;;;0.30;0.30;;;;;;;18.90;44.63;100877.75;5075569;28;20508;-37
2023/03/19 06:22:36;;;;;;;0.20;0.20;;;;;;;18.89;44.84;100884.41;5094932;28;20146;-37
2023/03/19 06:25:02;;;;;;;0.30;0.30;;;;;;;18.91;44.70;100884.09;5093493;28;20044;-37
2023/03/19 06:27:27;;;;;;;0.30;0.30;;;;;;;18.90;44.76;100879.69;5104191;28;20047;-37
2023/03/19 06:29:53;;;;;;;0.20;0.20;;;;;;;18.89;44.79;100889.91;5105183;28;20453;-37
2023/03/19 06:32:19;;;;;;;0.30;0.30;;;;;;;18.90;44.80;100887.97;5104286;28;20043;-37
2023/03/19 06:34:45;;;;;;;0.40;0.40;;;;;;;18.90;44.77;100894.31;5115151;28;20062;-37
2023/03/19 06:37:11;;;;;;;0.30;0.30;;;;;;;18.91;44.87;100892.38;5116633;27;20092;-37
2023/03/19 06:39:37;;;;;;;0.30;0.30;;;;;;;18.91;44.86;100904.28;5118041;28;20047;-36
2023/03/19 06:42:02;;;;;;;0.30;0.30;;;;;;;18.90;44.67;100891.56;5118461;28;20498;-37
2023/03/19 06:44:28;;;;;;;0.30;0.30;;;;;;;18.90;44.56;100899.00;5116201;28;20054;-37
2023/03/19 06:46:54;;;;;;;0.30;0.30;;;;;;;18.89;44.47;100897.38;5132412;27;20043;-37
2023/03/19 06:49:20;;;;;;;0.30;0.30;;;;;;;18.90;44.54;100896.25;5106000;27;20043;-37
2023/03/19 06:51:46;;;;;;;0.20;0.20;;;;;;;18.90;44.70;100887.97;5116747;28;20066;-37
2023/03/19 06:54:12;;;;;;;0.30;0.30;;;;;;;18.91;44.71;100892.38;5099975;28;20047;-37
2023/03/19 06:56:37;;;;;;;0.20;0.20;;;;;;;18.91;44.51;100892.38;5117868;28;20418;-37
2023/03/19 06:59:03;;;;;;;0.30;0.30;;;;;;;18.90;44.81;100891.56;5117714;28;20039;-37
2023/03/19 07:01:29;;;;;;;0.22;0.22;;;;;;;18.90;44.76;100885.22;5117494;28;20070;-36
2023/03/19 07:03:56;;;;;;;0.30;0.30;;;;;;;18.90;44.88;100893.50;5118201;28;20047;-37
2023/03/19 07:06:22;;;;;;;0.30;0.30;;;;;;;18.91;44.66;100897.91;5117719;28;20046;-37
2023/03/19 07:08:47;;;;;;;0.30;0.30;;;;;;;18.90;44.35;100896.25;5117511;28;20444;-37
2023/03/19 07:11:13;;;;;;;0.30;0.30;;;;;;;18.91;44.69;100900.66;5116581;28;20387;-37
2023/03/19 07:13:39;;;;;;;0.30;0.30;;;;;;;18.91;44.74;100903.41;5099251;28;20039;-37
2023/03/19 07:16:06;;;;;;;0.30;0.30;;;;;;;18.90;44.59;100913.63;5118100;28;20070;-37
2023/03/19 07:18:31;;;;;;;0.30;0.30;;;;;;;18.90;44.55;100907.28;5117502;28;20072;-37
2023/03/19 07:20:57;;;;;;;0.20;0.20;;;;;;;18.90;44.99;100918.34;5117740;28;20039;-37
2023/03/19 07:23:23;;;;;;;0.30;0.30;;;;;;;18.91;44.57;100922.75;5117805;27;20499;-37
2023/03/19 07:25:48;;;;;;;0.30;0.30;;;;;;;18.90;44.86;100923.84;5116371;28;20055;-37
2023/03/19 07:28:14;;;;;;;0.30;0.30;;;;;;;18.91;44.54;100925.50;5117329;28;20455;-36
2023/03/19 07:30:40;;;;;;;0.30;0.30;;;;;;;18.90;44.72;100927.44;5093218;28;20059;-37
2023/03/19 07:33:06;;;;;;;0.30;0.30;;;;;;;18.91;44.85;100928.25;5096742;27;20048;-37
2023/03/19 07:35:32;;;;;;;0.30;0.30;;;;;;;18.91;44.51;100936.53;5078580;28;20439;-37
2023/03/19 07:37:59;;;;;;;0.30;0.30;;;;;;;18.90;44.56;100932.13;5078994;28;20063;-37
2023/03/19 07:40:25;;;;;;;0.30;0.30;;;;;;;18.90;44.62;100941.22;5078625;28;20051;-37
2023/03/19 07:42:51;;;;;;;0.35;0.35;;;;;;;18.91;44.89;100942.06;5078823;28;20079;-37
2023/03/19 07:45:17;;;;;;;0.30;0.30;;;;;;;18.90;44.92;100937.66;5111609;27;20450;-37
2023/03/19 07:47:43;;;;;;;0.30;0.30;;;;;;;18.91;44.57;100948.44;5114636;27;20655;-37
2023/03/19 07:50:09;;;;;;;0.30;0.30;;;;;;;18.91;44.71;100944.81;5098168;28;20051;-37
2023/03/19 07:52:35;;;;;;;0.30;0.30;;;;;;;18.91;44.81;100955.84;5096145;28;20475;-37
2023/03/19 07:55:01;;;;;;;0.20;0.20;;;;;;;18.90;44.70;100945.94;5117611;27;20136;-37
2023/03/19 07:57:26;;;;;;;0.30;0.30;;;;;;;18.91;44.70;100948.44;5113605;28;20062;-37
2023/03/19 07:59:52;;;;;;;0.30;0.30;;;;;;;18.91;44.93;100956.72;5096176;28;20457;-37
2023/03/19 08:02:18;;;;;;;0.20;0.20;;;;;;;18.91;44.88;100953.09;5096440;28;20047;-37
2023/03/19 08:04:48;;;;;;;0.30;0.30;;;;;;;18.88;44.77;100948.97;5096456;28;20254;-37
2023/03/19 08:07:14;;;;;;;0.30;0.30;;;;;;;18.90;44.88;100957.78;5096607;28;20043;-37
2023/03/19 08:09:40;;;;;;;0.30;0.30;;;;;;;18.90;44.63;100949.50;5102667;28;20074;-37
2023/03/19 08:12:07;;;;;;;0.28;0.28;;;;;;;18.91;44.71;100955.84;5096922;28;20054;-37
2023/03/19 08:14:33;;;;;;;0.30;0.30;;;;;;;18.91;44.85;100959.47;5116428;28;20568;-37
2023/03/19 08:16:58;;;;;;;0.30;0.30;;;;;;;18.91;44.86;100967.75;5098711;28;20670;-37
2023/03/19 08:19:24;;;;;;;0.30;0.30;;;;;;;18.91;44.72;100959.47;5116875;28;20336;-37
2023/03/19 08:21:50;;;;;;;0.30;0.30;;;;;;;18.91;44.96;100966.88;5116905;28;20086;-37
2023/03/19 08:24:17;;;;;;;0.20;0.20;;;;;;;18.90;44.89;100957.78;5116214;28;20148;-37
2023/03/19 08:26:43;;;;;;;0.30;0.30;;;;;;;18.91;44.66;100966.88;5115875;28;20255;-37
2023/03/19 08:29:09;;;;;;;0.30;0.30;;;;;;;18.92;44.93;100969.38;5116241;28;20039;-37
2023/03/19 08:31:34;;;;;;;0.20;0.20;;;;;;;18.91;44.61;100953.09;5117999;27;20444;-37
2023/03/19 08:34:02;;;;;;;0.30;0.30;;;;;;;18.91;44.79;100955.84;5136954;27;20046;-37
2023/03/19 08:36:27;;;;;;;0.30;0.30;;;;;;;18.90;44.66;100955.03;5118102;27;20116;-37
2023/03/19 08:38:53;;;;;;;0.20;0.20;;;;;;;18.90;44.64;100957.78;5109068;27;20135;-37
2023/03/19 08:41:20;;;;;;;0.30;0.30;;;;;;;18.91;44.81;100967.75;5095868;28;20047;-36
2023/03/19 08:43:46;;;;;;;0.22;0.22;;;;;;;18.91;44.81;100969.66;5077748;28;20183;-36
2023/03/19 08:46:12;;;;;;;0.30;0.30;;;;;;;18.91;44.69;100973.25;5077114;28;20082;-37
2023/03/19 08:48:37;;;;;;;0.20;0.20;;;;;;;18.90;44.93;100968.81;5109214;28;20099;-37
2023/03/19 08:51:08;;;;;;;0.30;0.30;;;;;;;18.91;44.71;100973.25;5097060;28;20109;-37
2023/03/19 08:53:34;;;;;;;0.30;0.30;;;;;;;18.90;44.79;100977.09;5106619;28;20071;-37
2023/03/19 08:56:01;;;;;;;0.30;0.30;;;;;;;18.91;44.77;100975.16;5114575;28;20254;-37
2023/03/19 08:58:27;;;;;;;0.20;0.20;;;;;;;18.91;44.91;100972.41;5105826;27;20483;-37
2023/03/19 09:01:01;;;;;;;0.30;0.30;;;;;;;18.92;44.63;100977.66;5094332;28;20055;-37
2023/03/19 09:03:27;;;;;;;0.30;0.30;;;;;;;18.91;44.86;100977.94;5061051;28;20048;-37
2023/03/19 09:05:57;;;;;;;0.20;0.20;;;;;;;18.91;44.88;100976.03;5095407;28;20138;-37
2023/03/19 09:08:22;;;;;;;0.30;0.30;;;;;;;18.91;44.76;100972.41;5059837;28;20503;-37
2023/03/19 09:10:48;;;;;;;0.30;0.30;;;;;;;18.90;44.93;100977.09;5095287;28;20058;-36
2023/03/19 09:13:16;;;;;;;0.20;0.20;;;;;;;18.92;44.62;100982.38;5094369;28;20101;-37
2023/03/19 09:15:42;;;;;;;0.30;0.30;;;;;;;18.91;44.66;100981.53;5095040;28;20047;-36
2023/03/19 09:18:08;;;;;;;0.30;0.30;;;;;;;18.90;44.87;100979.88;5095140;28;20051;-36
2023/03/19 09:20:34;;;;;;;0.30;0.30;;;;;;;18.91;44.91;100986.22;5095655;28;20047;-36
2023/03/19 09:22:59;;;;;;;0.30;0.30;;;;;;;18.92;44.74;100990.66;5094917;28;20404;-37
2023/03/19 09:25:25;;;;;;;0.30;0.30;;;;;;;18.91;44.95;100991.72;5094478;28;20555;-36
2023/03/19 09:27:51;;;;;;;0.30;0.30;;;;;;;18.90;44.81;100990.91;5094964;28;20070;-37
2023/03/19 09:30:16;;;;;;;0.20;0.20;;;;;;;18.91;44.69;100995.34;5100092;27;20043;-37
2023/03/19 09:32:42;;;;;;;0.32;0.32;;;;;;;18.92;44.78;101004.44;5123335;27;20047;-37
2023/03/19 09:35:08;;;;;;;0.20;0.20;;;;;;;18.92;44.95;100993.41;5114851;28;20058;-36
2023/03/19 09:37:34;;;;;;;0.20;0.20;;;;;;;18.91;44.96;100998.09;5110713;28;20047;-37
2023/03/19 09:40:00;;;;;;;0.30;0.30;;;;;;;18.91;45.05;101000.84;5094851;28;20048;-37
2023/03/19 09:43:05;;;;;;;0.30;0.30;;;;;;;18.92;44.94;101001.69;5095091;28;20479;-37
2023/03/19 09:45:31;;;;;;;0.30;0.30;;;;;;;18.91;44.81;101003.63;5068443;28;20243;-36
2023/03/19 09:48:03;;;;;;;0.20;0.20;;;;;;;18.91;44.75;101002.75;5094086;28;20047;-36
2023/03/19 09:50:33;;;;;;;0.20;0.20;;;;;;;18.91;44.89;100994.47;5107556;28;20110;-36
2023/03/19 09:53:23;;;;;;;0.20;0.20;;;;;;;18.92;44.68;101002.50;5113938;28;20043;-37
2023/03/19 09:55:50;;;;;;;0.30;0.30;;;;;;;18.91;44.65;100994.47;5106702;28;20506;-36
2023/03/19 09:58:18;;;;;;;0.20;0.20;;;;;;;18.92;44.71;100993.41;5100070;28;20040;-37
2023/03/19 10:00:48;;;;;;;0.20;0.20;;;;;;;18.92;44.98;100990.66;5075736;28;20075;-36
2023/03/19 10:06:28;;;;;;;0.30;0.30;;;;;;;18.92;44.85;100991.47;5174343;27;20124;-37
2023/03/19 10:09:33;;;;;;;0.30;0.30;;;;;;;18.93;44.87;100995.06;5120371;27;20077;-37
2023/03/19 10:15:00;;;;;;;0.20;0.20;;;;;;;18.96;44.78;101006.38;5173429;27;20704;-37
2023/03/19 10:17:31;;;;;;;0.30;0.30;;;;;;;18.95;44.64;101007.44;5121213;27;20059;-37
2023/03/19 10:20:05;;;;;;;0.20;0.20;;;;;;;18.94;44.95;100997.53;5153114;27;20490;-37
2023/03/19 10:22:45;;;;;;;0.20;0.20;;;;;;;18.94;44.82;101016.00;5135133;27;20275;-37
2023/03/19 10:25:17;;;;;;;0.30;0.30;;;;;;;18.94;44.96;101016.00;5152784;27;20373;-37
2023/03/19 10:27:45;;;;;;;0.30;0.30;;;;;;;18.93;44.95;101014.38;5152624;27;20046;-37
2023/03/19 10:30:15;;;;;;;0.20;0.20;;;;;;;18.93;44.86;101014.38;5115790;27;20043;-37
2023/03/19 10:32:43;;;;;;;0.20;0.20;;;;;;;18.91;44.84;101014.66;5104628;27;20039;-37
2023/03/19 10:35:36;;;;;;;0.30;0.30;;;;;;;18.93;44.79;101023.47;5113307;27;20100;-36
2023/03/19 10:38:23;;;;;;;0.20;0.20;;;;;;;18.94;44.78;101024.28;5117826;27;20051;-36
2023/03/19 10:41:28;;;;;;;0.20;0.20;;;;;;;18.92;44.86;101026.53;5099640;27;20054;-37
2023/03/19 10:43:58;;;;;;;0.30;0.30;;;;;;;18.93;44.88;101025.41;5105743;27;20074;-37
2023/03/19 10:46:24;;;;;;;0.20;0.20;;;;;;;18.93;45.03;101025.41;5132379;27;20501;-37
2023/03/19 10:48:49;;;;;;;0.30;0.30;;;;;;;18.92;45.11;101030.09;5112176;27;20039;-37
2023/03/19 10:51:20;;;;;;;0.30;0.30;;;;;;;18.92;44.92;101030.09;5130817;27;20043;-36
2023/03/19 10:53:45;;;;;;;0.22;0.22;;;;;;;18.92;44.98;101023.75;5113503;27;20218;-36
2023/03/19 10:56:18;;;;;;;0.20;0.20;;;;;;;18.92;44.79;101029.28;5131998;27;20042;-37
2023/03/19 10:59:02;;;;;;;0.30;0.30;;;;;;;18.92;44.80;101029.28;5113691;27;20467;-36
2023/03/19 11:01:38;;;;;;;0.30;0.30;;;;;;;18.92;45.02;101035.63;5131368;27;20448;-36
2023/03/19 11:04:20;;;;;;;0.20;0.20;;;;;;;18.93;44.78;101033.69;5113399;27;20058;-37
2023/03/19 11:06:49;;;;;;;0.30;0.30;;;;;;;18.94;45.00;101032.56;5131415;27;20051;-37
2023/03/19 11:09:22;;;;;;;0.30;0.30;;;;;;;18.92;44.77;101034.78;5095936;27;20047;-36
2023/03/19 11:11:52;;;;;;;0.30;0.30;;;;;;;18.92;44.82;101038.38;5112118;27;20043;-37
2023/03/19 11:14:22;;;;;;;0.20;0.20;;;;;;;18.93;44.74;101029.00;5131376;27;20051;-36
2023/03/19 11:16:50;;;;;;;0.30;0.30;;;;;;;18.91;44.85;101036.72;5113806;27;20046;-37
2023/03/19 11:19:19;;;;;;;0.30;0.30;;;;;;;18.93;45.04;101036.44;5131701;27;20051;-37
2023/03/19 11:22:13;;;;;;;0.30;0.30;;;;;;;18.93;44.95;101036.44;5113355;27;20035;-36
2023/03/19 11:24:40;;;;;;;0.20;0.20;;;;;;;18.93;44.81;101039.19;5109398;28;20043;-36
2023/03/19 11:27:07;;;;;;;0.30;0.30;;;;;;;18.91;44.97;101033.97;5099382;28;20047;-37
2023/03/19 11:29:43;;;;;;;0.30;0.30;;;;;;;18.94;44.85;101044.44;5103409;28;20047;-36
2023/03/19 11:34:58;;;;;;;0.25;0.25;;;;;;;18.94;45.04;101040.84;5174366;27;20556;-36
2023/03/19 11:37:32;;;;;;;0.20;0.20;;;;;;;18.93;45.08;101036.44;5150323;27;20046;-37